Time,TemperatureF,DewpointF,PressureIn,WindDirection,WindDirectionDegrees,WindSpeedMPH,WindSpeedGustMPH,Humidity,HourlyPrecipIn,Conditions,Clouds,dailyrainin,SoftwareType,DateUTC
2013-01-17 00:03:00,30.6,17.1,30.24,SE,135,0.0,0.0,57,0.00,,SKC,0.00,VWS V14.01,2013-01-17 06:03:00,
2013-01-17 00:08:00,31.1,17.7,30.24,WSW,248,1.1,4.5,57,0.00,,SKC,0.00,VWS V14.01,2013-01-17 06:08:00,
2013-01-17 00:13:00,31.3,18.2,30.24,WSW,248,0.0,0.0,58,0.00,,SKC,0.00,VWS V14.01,2013-01-17 06:13:00,
2013-01-17 00:18:00,32.0,18.9,30.24,West,270,0.0,0.0,58,0.00,,SKC,0.00,VWS V14.01,2013-01-17 06:18:00,
2013-01-17 00:23:00,32.7,19.6,30.27,WSW,248,1.6,6.3,58,0.00,,SKC,0.00,VWS V14.01,2013-01-17 06:23:00,
2013-01-17 00:28:00,33.3,20.1,30.27,WSW,248,1.1,4.5,58,0.00,,SKC,0.00,VWS V14.01,2013-01-17 06:28:00,
2013-01-17 00:33:00,33.6,20.0,30.27,WSW,248,0.9,3.6,57,0.00,,SKC,0.00,VWS V14.01,2013-01-17 06:33:00,
2013-01-17 00:38:00,34.0,20.0,30.27,WSW,248,0.9,3.6,56,0.00,,SKC,0.00,VWS V14.01,2013-01-17 06:38:00,
2013-01-17 00:43:00,34.2,20.1,30.27,WSW,248,0.0,0.0,56,0.00,,SKC,0.00,VWS V14.01,2013-01-17 06:43:00,
2013-01-17 00:48:00,34.3,19.9,30.27,WSW,248,0.9,3.6,55,0.00,,SKC,0.00,VWS V14.01,2013-01-17 06:48:00,
2013-01-17 00:53:00,34.3,19.9,30.27,WSW,248,0.0,0.0,55,0.00,,SKC,0.00,VWS V14.01,2013-01-17 06:53:00,
2013-01-17 00:58:00,34.3,19.9,30.27,WSW,248,0.9,3.6,55,0.00,,SKC,0.00,VWS V14.01,2013-01-17 06:58:00,
2013-01-17 01:03:00,34.5,20.0,30.27,WSW,248,0.0,0.0,55,0.00,,SKC,0.00,VWS V14.01,2013-01-17 07:03:00,
2013-01-17 01:08:00,34.5,19.6,30.30,SW,225,0.0,0.0,54,0.00,,SKC,0.00,VWS V14.01,2013-01-17 07:08:00,
2013-01-17 01:13:00,34.5,19.6,30.30,WNW,292,0.0,0.0,54,0.00,,SKC,0.00,VWS V14.01,2013-01-17 07:13:00,
2013-01-17 01:18:00,34.7,19.8,30.30,WSW,248,2.0,8.1,54,0.00,,SKC,0.00,VWS V14.01,2013-01-17 07:18:00,
2013-01-17 01:23:00,34.7,19.8,30.30,WNW,292,2.0,8.1,54,0.00,,SKC,0.00,VWS V14.01,2013-01-17 07:23:00,
2013-01-17 01:28:00,34.7,19.8,30.30,WSW,248,2.2,9.0,54,0.00,,SKC,0.00,VWS V14.01,2013-01-17 07:28:00,
2013-01-17 01:33:00,34.9,19.9,30.30,WSW,248,1.1,4.5,54,0.00,,SKC,0.00,VWS V14.01,2013-01-17 07:33:00,
2013-01-17 01:38:00,34.9,19.9,30.30,WSW,248,1.6,6.3,54,0.00,,SKC,0.00,VWS V14.01,2013-01-17 07:38:00,
2013-01-17 01:43:00,34.9,19.5,30.30,West,270,0.9,3.6,53,0.00,,SKC,0.00,VWS V14.01,2013-01-17 07:43:00,
2013-01-17 01:48:00,34.9,19.5,30.30,WSW,248,0.0,0.0,53,0.00,,SKC,0.00,VWS V14.01,2013-01-17 07:48:00,
2013-01-17 01:53:00,34.9,19.5,30.30,WSW,248,1.3,5.4,53,0.00,,SKC,0.00,VWS V14.01,2013-01-17 07:53:00,
2013-01-17 01:58:00,35.1,19.7,30.30,WSW,248,1.1,4.5,53,0.00,,SKC,0.00,VWS V14.01,2013-01-17 07:58:00,
2013-01-17 02:03:00,35.1,19.7,30.30,WSW,248,0.0,0.0,53,0.00,,SKC,0.00,VWS V14.01,2013-01-17 08:03:00,
2013-01-17 02:08:00,35.1,19.7,30.30,North,0,2.0,8.1,53,0.00,,SKC,0.00,VWS V14.01,2013-01-17 08:08:00,
2013-01-17 02:13:00,35.1,19.7,30.30,WSW,248,1.3,5.4,53,0.00,,SKC,0.00,VWS V14.01,2013-01-17 08:13:00,
2013-01-17 02:18:00,35.1,19.7,30.30,WSW,248,1.6,6.3,53,0.00,,SKC,0.00,VWS V14.01,2013-01-17 08:18:00,
2013-01-17 02:23:00,35.1,19.7,30.30,WSW,248,0.0,0.0,53,0.00,,SKC,0.00,VWS V14.01,2013-01-17 08:23:00,
2013-01-17 02:28:00,34.9,19.5,30.30,WSW,248,1.3,5.4,53,0.00,,SKC,0.00,VWS V14.01,2013-01-17 08:28:00,
2013-01-17 02:33:00,34.9,19.5,30.30,WSW,248,0.0,0.0,53,0.00,,SKC,0.00,VWS V14.01,2013-01-17 08:33:00,
2013-01-17 02:38:00,34.9,19.5,30.30,WSW,248,0.0,0.0,53,0.00,,SKC,0.00,VWS V14.01,2013-01-17 08:38:00,
2013-01-17 02:43:00,34.9,19.5,30.30,WSW,248,0.0,0.0,53,0.00,,SKC,0.00,VWS V14.01,2013-01-17 08:43:00,
2013-01-17 02:48:00,34.9,19.5,30.30,WSW,248,0.0,0.0,53,0.00,,SKC,0.00,VWS V14.01,2013-01-17 08:48:00,
2013-01-17 02:53:00,34.9,19.5,30.30,WSW,248,0.0,0.0,53,0.00,,SKC,0.00,VWS V14.01,2013-01-17 08:53:00,
2013-01-17 02:58:00,34.9,19.5,30.30,WSW,248,0.0,0.0,53,0.00,,SKC,0.00,VWS V14.01,2013-01-17 08:58:00,
2013-01-17 03:03:00,34.9,19.5,30.30,West,270,0.0,0.0,53,0.00,,SKC,0.00,VWS V14.01,2013-01-17 09:03:00,
2013-01-17 03:08:00,34.9,19.5,30.30,NW,315,0.0,0.0,53,0.00,,SKC,0.00,VWS V14.01,2013-01-17 09:08:00,
2013-01-17 03:13:00,34.9,19.9,30.30,NW,315,0.0,0.0,54,0.00,,SKC,0.00,VWS V14.01,2013-01-17 09:13:00,
2013-01-17 03:18:00,34.9,19.9,30.30,WSW,248,0.0,0.0,54,0.00,,SKC,0.00,VWS V14.01,2013-01-17 09:18:00,
2013-01-17 03:23:00,34.9,19.9,30.30,WNW,292,0.0,0.0,54,0.00,,SKC,0.00,VWS V14.01,2013-01-17 09:23:00,
2013-01-17 03:28:00,34.7,19.8,30.27,WNW,292,0.0,0.0,54,0.00,,SKC,0.00,VWS V14.01,2013-01-17 09:28:00,
2013-01-17 03:33:00,34.5,19.6,30.27,WNW,292,0.0,0.0,54,0.00,,SKC,0.00,VWS V14.01,2013-01-17 09:33:00,
2013-01-17 03:38:00,34.2,19.3,30.30,North,0,0.0,0.0,54,0.00,,SKC,0.00,VWS V14.01,2013-01-17 09:38:00,
2013-01-17 03:43:00,34.0,19.1,30.30,North,0,0.0,0.0,54,0.00,,SKC,0.00,VWS V14.01,2013-01-17 09:43:00,
2013-01-17 03:48:00,33.8,18.9,30.30,West,270,0.0,0.0,54,0.00,,SKC,0.00,VWS V14.01,2013-01-17 09:48:00,
2013-01-17 03:53:00,34.0,19.1,30.30,WNW,292,0.0,0.0,54,0.00,,SKC,0.00,VWS V14.01,2013-01-17 09:53:00,
2013-01-17 03:58:00,34.2,19.3,30.30,North,0,1.3,5.4,54,0.00,,SKC,0.00,VWS V14.01,2013-01-17 09:58:00,
2013-01-17 04:03:00,34.3,19.9,30.30,West,270,0.9,3.6,55,0.00,,SKC,0.00,VWS V14.01,2013-01-17 10:03:00,
2013-01-17 04:08:00,34.5,20.0,30.30,West,270,1.1,4.5,55,0.00,,SKC,0.00,VWS V14.01,2013-01-17 10:08:00,
2013-01-17 04:13:00,34.9,20.4,30.30,South,180,1.3,5.4,55,0.00,,SKC,0.00,VWS V14.01,2013-01-17 10:13:00,
2013-01-17 04:18:00,34.9,20.4,30.30,WSW,248,1.6,6.3,55,0.00,,SKC,0.00,VWS V14.01,2013-01-17 10:18:00,
2013-01-17 04:23:00,35.1,20.5,30.33,WSW,248,0.0,0.0,55,0.00,,SKC,0.00,VWS V14.01,2013-01-17 10:23:00,
2013-01-17 04:28:00,35.1,20.5,30.33,West,270,1.1,4.5,55,0.00,,SKC,0.00,VWS V14.01,2013-01-17 10:28:00,
2013-01-17 04:33:00,35.2,20.7,30.33,North,0,0.0,0.0,55,0.00,,SKC,0.00,VWS V14.01,2013-01-17 10:33:00,
2013-01-17 04:38:00,35.4,20.9,30.33,WNW,292,2.2,9.0,55,0.00,,SKC,0.00,VWS V14.01,2013-01-17 10:38:00,
2013-01-17 04:43:00,35.6,21.0,30.33,WSW,248,0.0,0.0,55,0.00,,SKC,0.00,VWS V14.01,2013-01-17 10:43:00,
2013-01-17 04:48:00,35.6,21.0,30.33,SW,225,2.2,9.0,55,0.00,,SKC,0.00,VWS V14.01,2013-01-17 10:48:00,
2013-01-17 04:53:00,35.8,20.8,30.33,WNW,292,2.0,8.1,54,0.00,,SKC,0.00,VWS V14.01,2013-01-17 10:53:00,
2013-01-17 04:58:00,35.8,20.8,30.33,NW,315,2.9,11.6,54,0.00,,SKC,0.00,VWS V14.01,2013-01-17 10:58:00,
2013-01-17 05:03:00,35.8,20.8,30.33,WSW,248,1.1,4.5,54,0.00,,SKC,0.00,VWS V14.01,2013-01-17 11:03:00,
2013-01-17 05:08:00,35.8,20.8,30.33,SW,225,2.5,9.8,54,0.00,,SKC,0.00,VWS V14.01,2013-01-17 11:08:00,
2013-01-17 05:13:00,35.8,20.8,30.33,WNW,292,0.0,0.0,54,0.00,,SKC,0.00,VWS V14.01,2013-01-17 11:13:00,
2013-01-17 05:18:00,35.8,20.8,30.33,West,270,3.4,13.4,54,0.00,,SKC,0.00,VWS V14.01,2013-01-17 11:18:00,
2013-01-17 05:23:00,36.0,21.4,30.33,WNW,292,2.7,10.7,55,0.00,,SKC,0.00,VWS V14.01,2013-01-17 11:23:00,
2013-01-17 05:28:00,35.8,21.2,30.33,WNW,292,3.4,13.4,55,0.00,,SKC,0.00,VWS V14.01,2013-01-17 11:28:00,
2013-01-17 05:33:00,35.8,21.2,30.33,WSW,248,0.0,0.0,55,0.00,,SKC,0.00,VWS V14.01,2013-01-17 11:33:00,
2013-01-17 05:38:00,35.8,21.2,30.33,WNW,292,2.0,8.1,55,0.00,,SKC,0.00,VWS V14.01,2013-01-17 11:38:00,
2013-01-17 05:43:00,35.8,21.2,30.33,NW,315,2.9,11.6,55,0.00,,SKC,0.00,VWS V14.01,2013-01-17 11:43:00,
2013-01-17 05:48:00,35.6,21.0,30.33,NW,315,2.0,8.1,55,0.00,,SKC,0.00,VWS V14.01,2013-01-17 11:48:00,
2013-01-17 05:53:00,35.6,21.0,30.36,NW,315,1.3,5.4,55,0.00,,SKC,0.00,VWS V14.01,2013-01-17 11:53:00,
2013-01-17 05:58:00,35.6,21.0,30.36,NW,315,1.6,6.3,55,0.00,,SKC,0.00,VWS V14.01,2013-01-17 11:58:00,
2013-01-17 06:03:00,35.4,21.3,30.36,WNW,292,2.9,11.6,56,0.00,,SKC,0.00,VWS V14.01,2013-01-17 12:03:00,
2013-01-17 06:08:00,35.2,21.5,30.36,NNW,338,2.5,9.8,57,0.00,,SKC,0.00,VWS V14.01,2013-01-17 12:08:00,
2013-01-17 06:13:00,34.7,21.0,30.36,SW,225,0.0,0.0,57,0.00,,SKC,0.00,VWS V14.01,2013-01-17 12:13:00,
2013-01-17 06:18:00,34.7,21.5,30.36,WNW,292,2.2,9.0,58,0.00,,SKC,0.00,VWS V14.01,2013-01-17 12:18:00,
2013-01-17 06:23:00,34.5,21.7,30.36,NNW,338,2.9,11.6,59,0.00,,SKC,0.00,VWS V14.01,2013-01-17 12:23:00,
2013-01-17 06:28:00,34.3,21.9,30.36,North,0,1.3,5.4,60,0.00,,SKC,0.00,VWS V14.01,2013-01-17 12:28:00,
2013-01-17 06:33:00,34.3,22.7,30.36,WSW,248,2.2,9.0,62,0.00,,SKC,0.00,VWS V14.01,2013-01-17 12:33:00,
2013-01-17 06:38:00,34.0,22.4,30.36,NE,45,1.3,5.4,62,0.00,,SKC,0.00,VWS V14.01,2013-01-17 12:38:00,
2013-01-17 06:43:00,33.8,22.5,30.36,West,270,0.9,3.6,63,0.00,,SKC,0.00,VWS V14.01,2013-01-17 12:43:00,
2013-01-17 06:48:00,33.6,22.8,30.36,WNW,292,2.5,9.8,64,0.00,,SKC,0.00,VWS V14.01,2013-01-17 12:48:00,
2013-01-17 06:53:00,33.6,23.1,30.36,ENE,68,1.6,6.3,65,0.00,,SKC,0.00,VWS V14.01,2013-01-17 12:53:00,
2013-01-17 06:58:00,33.4,23.3,30.36,West,270,1.3,5.4,66,0.00,,SKC,0.00,VWS V14.01,2013-01-17 12:58:00,
2013-01-17 07:03:00,33.3,23.5,30.36,ENE,68,2.5,9.8,67,0.00,,SKC,0.00,VWS V14.01,2013-01-17 13:03:00,
2013-01-17 07:08:00,33.3,23.9,30.36,NNE,22,1.3,5.4,68,0.00,,SKC,0.00,VWS V14.01,2013-01-17 13:08:00,
2013-01-17 07:13:00,33.3,24.5,30.36,NW,315,3.1,12.5,70,0.00,,SKC,0.00,VWS V14.01,2013-01-17 13:13:00,
2013-01-17 07:18:00,33.3,24.5,30.36,WNW,292,2.7,10.7,70,0.00,,SKC,0.00,VWS V14.01,2013-01-17 13:18:00,
2013-01-17 07:23:00,33.3,24.9,30.39,NNW,338,2.0,8.1,71,0.00,,SKC,0.00,VWS V14.01,2013-01-17 13:23:00,
2013-01-17 07:28:00,33.3,25.2,30.39,NNE,22,2.0,8.1,72,0.00,,SKC,0.00,VWS V14.01,2013-01-17 13:28:00,
2013-01-17 07:33:00,33.4,25.4,30.39,NNW,338,3.4,13.4,72,0.00,,SKC,0.00,VWS V14.01,2013-01-17 13:33:00,
2013-01-17 07:38:00,33.8,25.7,30.41,NE,45,2.2,9.0,72,0.00,,SKC,0.00,VWS V14.01,2013-01-17 13:38:00,
2013-01-17 07:43:00,34.2,26.1,30.41,NNW,338,5.4,21.5,72,0.00,,SKC,0.00,VWS V14.01,2013-01-17 13:43:00,
2013-01-17 07:48:00,34.3,26.6,30.41,North,0,2.5,9.8,73,0.00,,SKC,0.00,VWS V14.01,2013-01-17 13:48:00,
2013-01-17 07:53:00,34.3,26.6,30.41,ESE,112,1.1,4.5,73,0.00,,SKC,0.00,VWS V14.01,2013-01-17 13:53:00,
2013-01-17 07:58:00,34.3,26.6,30.41,North,0,2.5,9.8,73,0.00,,SKC,0.00,VWS V14.01,2013-01-17 13:58:00,
2013-01-17 08:03:00,34.5,26.8,30.41,NNW,338,2.0,8.1,73,0.00,,SKC,0.00,VWS V14.01,2013-01-17 14:03:00,
2013-01-17 08:08:00,34.5,26.8,30.41,NE,45,1.3,5.4,73,0.00,,SKC,0.00,VWS V14.01,2013-01-17 14:08:00,
2013-01-17 08:13:00,34.5,26.8,30.41,North,0,1.6,6.3,73,0.00,,SKC,0.00,VWS V14.01,2013-01-17 14:13:00,
2013-01-17 08:18:00,34.9,27.1,30.41,NNW,338,4.3,17.0,73,0.00,,SKC,0.00,VWS V14.01,2013-01-17 14:18:00,
2013-01-17 08:23:00,34.9,27.8,30.41,North,0,4.0,16.1,75,0.00,,SKC,0.00,VWS V14.01,2013-01-17 14:23:00,
2013-01-17 08:28:00,35.4,28.0,30.41,NNW,338,3.8,15.2,74,0.00,,SKC,0.00,VWS V14.01,2013-01-17 14:28:00,
2013-01-17 08:33:00,35.8,28.3,30.41,NW,315,2.9,11.6,74,0.00,,SKC,0.00,VWS V14.01,2013-01-17 14:33:00,
2013-01-17 08:38:00,36.1,28.7,30.41,SW,225,2.7,10.7,74,0.00,,SKC,0.00,VWS V14.01,2013-01-17 14:38:00,
2013-01-17 08:43:00,36.3,28.5,30.41,North,0,2.7,10.7,73,0.00,,SKC,0.00,VWS V14.01,2013-01-17 14:43:00,
2013-01-17 08:48:00,36.3,28.2,30.41,NE,45,3.4,13.4,72,0.00,,SKC,0.00,VWS V14.01,2013-01-17 14:48:00,
2013-01-17 08:53:00,36.3,28.2,30.44,NNW,338,2.5,9.8,72,0.00,,SKC,0.00,VWS V14.01,2013-01-17 14:53:00,
2013-01-17 08:58:00,36.3,28.2,30.44,WNW,292,2.5,9.8,72,0.00,,SKC,0.00,VWS V14.01,2013-01-17 14:58:00,
2013-01-17 09:03:00,36.7,28.2,30.44,WNW,292,3.1,12.5,71,0.00,,SKC,0.00,VWS V14.01,2013-01-17 15:03:00,
2013-01-17 09:08:00,36.7,28.2,30.47,WNW,292,3.6,14.3,71,0.00,,SKC,0.00,VWS V14.01,2013-01-17 15:08:00,
2013-01-17 09:13:00,36.9,28.0,30.47,North,0,3.8,15.2,70,0.00,,SKC,0.00,VWS V14.01,2013-01-17 15:13:00,
2013-01-17 09:18:00,37.2,28.0,30.47,NNW,338,6.0,24.2,69,0.00,,SKC,0.00,VWS V14.01,2013-01-17 15:18:00,
2013-01-17 09:24:00,37.2,27.6,30.47,NNW,338,2.9,11.6,68,0.00,,SKC,0.00,VWS V14.01,2013-01-17 15:24:00,
2013-01-17 09:29:00,37.6,27.6,30.47,NNE,22,2.2,9.0,67,0.00,,SKC,0.00,VWS V14.01,2013-01-17 15:29:00,
2013-01-17 09:33:00,37.6,27.3,30.47,North,0,2.5,9.8,66,0.00,,SKC,0.00,VWS V14.01,2013-01-17 15:33:00,
2013-01-17 09:39:00,37.4,27.1,30.44,NNW,338,6.9,27.7,66,0.00,,SKC,0.00,VWS V14.01,2013-01-17 15:39:00,
2013-01-17 09:44:00,37.4,27.1,30.44,NW,315,4.7,18.8,66,0.00,,SKC,0.00,VWS V14.01,2013-01-17 15:44:00,
2013-01-17 09:49:00,37.6,27.3,30.44,WNW,292,3.4,13.4,66,0.00,,SKC,0.00,VWS V14.01,2013-01-17 15:49:00,
2013-01-17 09:54:00,37.6,26.9,30.47,North,0,4.5,17.9,65,0.00,,SKC,0.00,VWS V14.01,2013-01-17 15:54:00,
2013-01-17 09:59:00,37.6,26.5,30.47,NW,315,5.6,22.4,64,0.00,,SKC,0.00,VWS V14.01,2013-01-17 15:59:00,
2013-01-17 10:04:00,37.9,26.9,30.47,NW,315,4.9,19.7,64,0.00,,SKC,0.00,VWS V14.01,2013-01-17 16:04:00,
2013-01-17 10:08:00,37.8,26.3,30.47,NNW,338,4.0,16.1,63,0.00,,SKC,0.00,VWS V14.01,2013-01-17 16:08:00,
2013-01-17 10:13:00,37.9,26.5,30.47,WNW,292,7.6,30.4,63,0.00,,SKC,0.00,VWS V14.01,2013-01-17 16:13:00,
2013-01-17 10:18:00,38.8,27.3,30.47,WSW,248,2.5,9.8,63,0.00,,SKC,0.00,VWS V14.01,2013-01-17 16:18:00,
2013-01-17 10:23:00,38.8,26.2,30.47,NNW,338,2.2,9.0,60,0.00,,SKC,0.00,VWS V14.01,2013-01-17 16:23:00,
2013-01-17 10:28:00,39.7,26.6,30.47,NNW,338,4.0,16.1,59,0.00,,SKC,0.00,VWS V14.01,2013-01-17 16:28:00,
2013-01-17 10:33:00,39.7,26.2,30.47,NNE,22,4.7,18.8,58,0.00,,SKC,0.00,VWS V14.01,2013-01-17 16:33:00,
2013-01-17 10:38:00,39.6,26.0,30.47,NW,315,2.7,10.7,58,0.00,,SKC,0.00,VWS V14.01,2013-01-17 16:38:00,
2013-01-17 10:43:00,39.6,26.0,30.47,North,0,4.3,17.0,58,0.00,,SKC,0.00,VWS V14.01,2013-01-17 16:43:00,
2013-01-17 10:48:00,38.8,24.9,30.47,NNW,338,2.0,8.1,57,0.00,,SKC,0.00,VWS V14.01,2013-01-17 16:48:00,
2013-01-17 10:53:00,40.3,25.9,30.47,West,270,2.0,8.1,56,0.00,,SKC,0.00,VWS V14.01,2013-01-17 16:53:00,
2013-01-17 10:58:00,40.3,25.9,30.47,NNW,338,6.5,26.0,56,0.00,,SKC,0.00,VWS V14.01,2013-01-17 16:58:00,
2013-01-17 11:03:00,39.7,24.5,30.47,NE,45,3.6,14.3,54,0.00,,SKC,0.00,VWS V14.01,2013-01-17 17:03:00,
2013-01-17 11:08:00,40.8,24.6,30.47,NNW,338,6.3,25.1,52,0.00,,SKC,0.00,VWS V14.01,2013-01-17 17:08:00,
2013-01-17 11:13:00,41.0,24.3,30.47,NNW,338,4.3,17.0,51,0.00,,SKC,0.00,VWS V14.01,2013-01-17 17:13:00,
2013-01-17 11:18:00,43.0,26.1,30.47,ENE,68,6.3,25.1,51,0.00,,SKC,0.00,VWS V14.01,2013-01-17 17:18:00,
2013-01-17 11:24:00,43.0,25.6,30.47,NE,45,3.6,14.3,50,0.00,,SKC,0.00,VWS V14.01,2013-01-17 17:24:00,
2013-01-17 11:28:00,41.5,24.3,30.47,SW,225,1.6,6.3,50,0.00,,SKC,0.00,VWS V14.01,2013-01-17 17:28:00,
2013-01-17 11:34:00,44.1,26.1,30.47,NNW,338,3.8,15.2,49,0.00,,SKC,0.00,VWS V14.01,2013-01-17 17:34:00,
2013-01-17 11:39:00,44.6,26.6,30.47,West,270,2.7,10.7,49,0.00,,SKC,0.00,VWS V14.01,2013-01-17 17:39:00,
2013-01-17 11:44:00,43.9,26.0,30.47,South,180,1.6,6.3,49,0.00,,SKC,0.00,VWS V14.01,2013-01-17 17:44:00,
2013-01-17 11:49:00,43.7,25.3,30.47,NNE,22,3.6,14.3,48,0.00,,SKC,0.00,VWS V14.01,2013-01-17 17:49:00,
2013-01-17 11:54:00,44.4,26.0,30.47,NNE,22,4.3,17.0,48,0.00,,SKC,0.00,VWS V14.01,2013-01-17 17:54:00,
2013-01-17 11:59:00,44.6,25.6,30.47,WNW,292,3.1,12.5,47,0.00,,SKC,0.00,VWS V14.01,2013-01-17 17:59:00,
2013-01-17 12:04:00,44.4,26.0,30.47,SW,225,2.2,9.0,48,0.00,,SKC,0.00,VWS V14.01,2013-01-17 18:04:00,
2013-01-17 12:09:00,44.4,25.0,30.47,NW,315,1.6,6.3,46,0.00,,SKC,0.00,VWS V14.01,2013-01-17 18:09:00,
2013-01-17 12:14:00,44.4,25.0,30.47,NW,315,1.1,4.5,46,0.00,,SKC,0.00,VWS V14.01,2013-01-17 18:14:00,
2013-01-17 12:19:00,44.1,24.1,30.47,North,0,2.9,11.6,45,0.00,,SKC,0.00,VWS V14.01,2013-01-17 18:19:00,
2013-01-17 12:24:00,43.7,23.8,30.47,NNW,338,3.1,12.5,45,0.00,,SKC,0.00,VWS V14.01,2013-01-17 18:24:00,
2013-01-17 12:29:00,43.7,23.8,30.47,NNW,338,3.1,12.5,45,0.00,,SKC,0.00,VWS V14.01,2013-01-17 18:29:00,
2013-01-17 12:34:00,44.2,23.7,30.47,East,90,2.5,9.8,44,0.00,,SKC,0.00,VWS V14.01,2013-01-17 18:34:00,
2013-01-17 12:39:00,43.7,23.2,30.47,NE,45,2.0,8.1,44,0.00,,SKC,0.00,VWS V14.01,2013-01-17 18:39:00,
2013-01-17 12:44:00,43.3,23.4,30.47,ESE,112,4.0,16.1,45,0.00,,SKC,0.00,VWS V14.01,2013-01-17 18:44:00,
2013-01-17 12:49:00,43.3,23.4,30.47,NNW,338,3.6,14.3,45,0.00,,SKC,0.00,VWS V14.01,2013-01-17 18:49:00,
2013-01-17 12:54:00,43.3,23.4,30.47,NNE,22,2.9,11.6,45,0.00,,SKC,0.00,VWS V14.01,2013-01-17 18:54:00,
2013-01-17 12:59:00,43.5,23.6,30.47,North,0,2.5,9.8,45,0.00,,SKC,0.00,VWS V14.01,2013-01-17 18:59:00,
2013-01-17 13:04:00,43.9,23.4,30.47,NW,315,5.4,21.5,44,0.00,,SKC,0.00,VWS V14.01,2013-01-17 19:04:00,
2013-01-17 13:09:00,43.7,22.7,30.44,WSW,248,5.4,21.5,43,0.00,,SKC,0.00,VWS V14.01,2013-01-17 19:09:00,
2013-01-17 13:14:00,43.7,22.7,30.44,NNW,338,4.3,17.0,43,0.00,,SKC,0.00,VWS V14.01,2013-01-17 19:14:00,
2013-01-17 13:19:00,44.1,23.0,30.44,North,0,2.0,8.1,43,0.00,,SKC,0.00,VWS V14.01,2013-01-17 19:19:00,
2013-01-17 13:24:00,44.2,22.6,30.47,North,0,3.6,14.3,42,0.00,,SKC,0.00,VWS V14.01,2013-01-17 19:24:00,
2013-01-17 13:29:00,44.1,21.9,30.47,WNW,292,2.7,10.7,41,0.00,,SKC,0.00,VWS V14.01,2013-01-17 19:29:00,
2013-01-17 13:34:00,44.1,21.9,30.47,NNW,338,4.7,18.8,41,0.00,,SKC,0.00,VWS V14.01,2013-01-17 19:34:00,
2013-01-17 13:39:00,44.6,21.8,30.47,NW,315,4.0,16.1,40,0.00,,SKC,0.00,VWS V14.01,2013-01-17 19:39:00,
2013-01-17 13:44:00,44.6,21.8,30.47,NW,315,4.9,19.7,40,0.00,,SKC,0.00,VWS V14.01,2013-01-17 19:44:00,
2013-01-17 13:49:00,43.7,20.4,30.47,NW,315,6.0,24.2,39,0.00,,SKC,0.00,VWS V14.01,2013-01-17 19:49:00,
2013-01-17 13:54:00,43.7,20.4,30.44,NE,45,12.1,48.3,39,0.00,,SKC,0.00,VWS V14.01,2013-01-17 19:54:00,
2013-01-17 13:59:00,44.1,20.7,30.44,NNW,338,2.0,8.1,39,0.00,,SKC,0.00,VWS V14.01,2013-01-17 19:59:00,
2013-01-17 14:04:00,44.4,21.0,30.44,North,0,2.9,11.6,39,0.00,,SKC,0.00,VWS V14.01,2013-01-17 20:04:00,
2013-01-17 14:09:00,44.8,21.4,30.47,North,0,4.3,17.0,39,0.00,,SKC,0.00,VWS V14.01,2013-01-17 20:09:00,
2013-01-17 14:14:00,44.6,21.2,30.47,SW,225,3.1,12.5,39,0.00,,SKC,0.00,VWS V14.01,2013-01-17 20:14:00,
2013-01-17 14:19:00,45.0,22.1,30.47,West,270,1.6,6.3,40,0.00,,SKC,0.00,VWS V14.01,2013-01-17 20:19:00,
2013-01-17 14:24:00,44.8,22.0,30.47,NW,315,2.9,11.6,40,0.00,,SKC,0.00,VWS V14.01,2013-01-17 20:24:00,
2013-01-17 14:29:00,45.0,22.1,30.47,SW,225,6.0,24.2,40,0.00,,SKC,0.00,VWS V14.01,2013-01-17 20:29:00,
2013-01-17 14:34:00,44.2,21.5,30.47,SSW,202,2.2,9.0,40,0.00,,SKC,0.00,VWS V14.01,2013-01-17 20:34:00,
2013-01-17 14:39:00,44.2,21.5,30.47,WNW,292,3.1,12.5,40,0.00,,SKC,0.00,VWS V14.01,2013-01-17 20:39:00,
2013-01-17 14:44:00,44.6,21.2,30.47,NW,315,3.8,15.2,39,0.00,,SKC,0.00,VWS V14.01,2013-01-17 20:44:00,
2013-01-17 14:49:00,44.6,21.2,30.47,WSW,248,3.6,14.3,39,0.00,,SKC,0.00,VWS V14.01,2013-01-17 20:49:00,
2013-01-17 14:54:00,44.2,20.9,30.47,WNW,292,3.4,13.4,39,0.00,,SKC,0.00,VWS V14.01,2013-01-17 20:54:00,
2013-01-17 14:59:00,44.2,20.9,30.47,SSW,202,3.1,12.5,39,0.00,,SKC,0.00,VWS V14.01,2013-01-17 20:59:00,
2013-01-17 15:04:00,44.2,20.9,30.47,ENE,68,4.7,18.8,39,0.00,,SKC,0.00,VWS V14.01,2013-01-17 21:04:00,
2013-01-17 15:09:00,43.3,19.5,30.47,WSW,248,4.3,17.0,38,0.00,,SKC,0.00,VWS V14.01,2013-01-17 21:09:00,
2013-01-17 15:14:00,43.3,19.5,30.47,NNW,338,2.7,10.7,38,0.00,,SKC,0.00,VWS V14.01,2013-01-17 21:14:00,
2013-01-17 15:19:00,43.2,19.3,30.47,NNW,338,4.0,16.1,38,0.00,,SKC,0.00,VWS V14.01,2013-01-17 21:19:00,
2013-01-17 15:24:00,43.0,19.1,30.50,NW,315,7.6,30.4,38,0.00,,SKC,0.00,VWS V14.01,2013-01-17 21:24:00,
2013-01-17 15:29:00,42.8,19.0,30.50,NE,45,6.0,24.2,38,0.00,,SKC,0.00,VWS V14.01,2013-01-17 21:29:00,
2013-01-17 15:34:00,42.6,18.8,30.50,North,0,4.3,17.0,38,0.00,,SKC,0.00,VWS V14.01,2013-01-17 21:34:00,
2013-01-17 15:39:00,42.3,18.5,30.50,NNW,338,2.7,10.7,38,0.00,,SKC,0.00,VWS V14.01,2013-01-17 21:39:00,
2013-01-17 15:44:00,42.1,18.3,30.50,NNW,338,1.6,6.3,38,0.00,,SKC,0.00,VWS V14.01,2013-01-17 21:44:00,
2013-01-17 15:49:00,42.1,18.3,30.50,SSW,202,2.5,9.8,38,0.00,,SKC,0.00,VWS V14.01,2013-01-17 21:49:00,
2013-01-17 15:54:00,42.1,18.3,30.50,SSE,158,2.5,9.8,38,0.00,,SKC,0.00,VWS V14.01,2013-01-17 21:54:00,
2013-01-17 15:59:00,41.7,18.0,30.50,SW,225,3.4,13.4,38,0.00,,SKC,0.00,VWS V14.01,2013-01-17 21:59:00,
2013-01-17 16:04:00,41.9,18.2,30.50,NW,315,2.7,10.7,38,0.00,,SKC,0.00,VWS V14.01,2013-01-17 22:04:00,
2013-01-17 16:09:00,42.1,18.3,30.50,West,270,5.6,22.4,38,0.00,,SKC,0.00,VWS V14.01,2013-01-17 22:09:00,
2013-01-17 16:14:00,42.1,18.3,30.50,NNW,338,3.6,14.3,38,0.00,,SKC,0.00,VWS V14.01,2013-01-17 22:14:00,
2013-01-17 16:19:00,42.1,18.3,30.50,ENE,68,1.6,6.3,38,0.00,,SKC,0.00,VWS V14.01,2013-01-17 22:19:00,
2013-01-17 16:24:00,41.5,17.8,30.53,West,270,3.4,13.4,38,0.00,,SKC,0.00,VWS V14.01,2013-01-17 22:24:00,
2013-01-17 16:29:00,41.2,17.5,30.53,NNE,22,2.7,10.7,38,0.00,,SKC,0.00,VWS V14.01,2013-01-17 22:29:00,
2013-01-17 16:34:00,40.5,17.5,30.53,East,90,1.6,6.3,39,0.00,,SKC,0.00,VWS V14.01,2013-01-17 22:34:00,
2013-01-17 16:39:00,40.1,17.1,30.53,WNW,292,5.4,21.5,39,0.00,,SKC,0.00,VWS V14.01,2013-01-17 22:39:00,
2013-01-17 16:44:00,39.4,16.5,30.53,South,180,2.9,11.6,39,0.00,,SKC,0.00,VWS V14.01,2013-01-17 22:44:00,
2013-01-17 16:49:00,39.0,16.2,30.53,NNW,338,2.7,10.7,39,0.00,,SKC,0.00,VWS V14.01,2013-01-17 22:49:00,
2013-01-17 16:54:00,38.7,15.9,30.53,NW,315,2.5,9.8,39,0.00,,SKC,0.00,VWS V14.01,2013-01-17 22:54:00,
2013-01-17 16:59:00,38.3,15.5,30.53,WNW,292,2.2,9.0,39,0.00,,SKC,0.00,VWS V14.01,2013-01-17 22:59:00,
2013-01-17 17:04:00,37.9,15.8,30.53,SSW,202,1.6,6.3,40,0.00,,SKC,0.00,VWS V14.01,2013-01-17 23:04:00,
2013-01-17 17:09:00,37.6,15.5,30.53,SW,225,1.6,6.3,40,0.00,,SKC,0.00,VWS V14.01,2013-01-17 23:09:00,
2013-01-17 17:14:00,37.2,15.1,30.53,North,0,0.9,3.6,40,0.00,,SKC,0.00,VWS V14.01,2013-01-17 23:14:00,
2013-01-17 17:19:00,37.0,15.0,30.53,North,0,5.6,22.4,40,0.00,,SKC,0.00,VWS V14.01,2013-01-17 23:19:00,
2013-01-17 17:24:00,36.9,15.4,30.53,WSW,248,2.9,11.6,41,0.00,,SKC,0.00,VWS V14.01,2013-01-17 23:24:00,
2013-01-17 17:29:00,36.7,15.2,30.53,NW,315,3.1,12.5,41,0.00,,SKC,0.00,VWS V14.01,2013-01-17 23:29:00,
2013-01-17 17:34:00,36.5,15.1,30.53,NW,315,1.3,5.4,41,0.00,,SKC,0.00,VWS V14.01,2013-01-17 23:34:00,
2013-01-17 17:39:00,36.1,14.7,30.53,North,0,2.5,9.8,41,0.00,,SKC,0.00,VWS V14.01,2013-01-17 23:39:00,
2013-01-17 17:44:00,35.8,14.4,30.53,West,270,1.6,6.3,41,0.00,,SKC,0.00,VWS V14.01,2013-01-17 23:44:00,
2013-01-17 17:49:00,35.6,14.2,30.53,WNW,292,2.0,8.1,41,0.00,,SKC,0.00,VWS V14.01,2013-01-17 23:49:00,
2013-01-17 17:54:00,35.2,14.5,30.56,WNW,292,2.0,8.1,42,0.00,,SKC,0.00,VWS V14.01,2013-01-17 23:54:00,
2013-01-17 17:59:00,34.9,14.1,30.56,WSW,248,0.0,0.0,42,0.00,,SKC,0.00,VWS V14.01,2013-01-17 23:59:00,
2013-01-17 18:04:00,34.5,13.8,30.56,WSW,248,1.1,4.5,42,0.00,,SKC,0.00,VWS V14.01,2013-01-18 00:04:00,
2013-01-17 18:09:00,34.0,13.3,30.56,West,270,1.3,5.4,42,0.00,,SKC,0.00,VWS V14.01,2013-01-18 00:09:00,
2013-01-17 18:14:00,34.2,13.5,30.56,West,270,1.3,5.4,42,0.00,,SKC,0.00,VWS V14.01,2013-01-18 00:14:00,
2013-01-17 18:19:00,34.0,13.9,30.56,NNW,338,1.6,6.3,43,0.00,,SKC,0.00,VWS V14.01,2013-01-18 00:19:00,
2013-01-17 18:24:00,34.2,14.0,30.59,WNW,292,2.5,9.8,43,0.00,,SKC,0.00,VWS V14.01,2013-01-18 00:24:00,
2013-01-17 18:29:00,34.2,14.0,30.59,East,90,0.9,3.6,43,0.00,,SKC,0.00,VWS V14.01,2013-01-18 00:29:00,
2013-01-17 18:34:00,34.0,13.9,30.59,North,0,1.6,6.3,43,0.00,,SKC,0.00,VWS V14.01,2013-01-18 00:34:00,
2013-01-17 18:39:00,34.0,13.9,30.59,ENE,68,3.4,13.4,43,0.00,,SKC,0.00,VWS V14.01,2013-01-18 00:39:00,
2013-01-17 18:44:00,33.6,14.1,30.59,NNE,22,1.1,4.5,44,0.00,,SKC,0.00,VWS V14.01,2013-01-18 00:44:00,
2013-01-17 18:49:00,33.4,13.9,30.59,NW,315,2.0,8.1,44,0.00,,SKC,0.00,VWS V14.01,2013-01-18 00:49:00,
2013-01-17 18:54:00,33.1,13.6,30.59,NNW,338,0.0,0.0,44,0.00,,SKC,0.00,VWS V14.01,2013-01-18 00:54:00,
2013-01-17 18:59:00,32.5,13.1,30.62,West,270,0.0,0.0,44,0.00,,SKC,0.00,VWS V14.01,2013-01-18 00:59:00,
2013-01-17 19:04:00,32.2,12.7,30.62,West,270,0.0,0.0,44,0.00,,SKC,0.00,VWS V14.01,2013-01-18 01:04:00,
2013-01-17 19:09:00,32.0,12.6,30.59,WSW,248,0.0,0.0,44,0.00,,SKC,0.00,VWS V14.01,2013-01-18 01:09:00,
2013-01-17 19:14:00,31.5,12.1,30.59,NW,315,0.0,0.0,44,0.00,,SKC,0.00,VWS V14.01,2013-01-18 01:14:00,
2013-01-17 19:19:00,31.1,11.8,30.59,West,270,0.0,0.0,44,0.00,,SKC,0.00,VWS V14.01,2013-01-18 01:19:00,
2013-01-17 19:24:00,30.7,11.9,30.59,West,270,0.0,0.0,45,0.00,,SKC,0.00,VWS V14.01,2013-01-18 01:24:00,
2013-01-17 19:29:00,30.4,11.6,30.59,NW,315,0.0,0.0,45,0.00,,SKC,0.00,VWS V14.01,2013-01-18 01:29:00,
2013-01-17 19:34:00,30.0,11.3,30.59,NW,315,0.0,0.0,45,0.00,,SKC,0.00,VWS V14.01,2013-01-18 01:34:00,
2013-01-17 19:39:00,29.7,11.4,30.59,NW,315,0.0,0.0,46,0.00,,SKC,0.00,VWS V14.01,2013-01-18 01:39:00,
2013-01-17 19:44:00,29.3,11.1,30.59,NW,315,0.0,0.0,46,0.00,,SKC,0.00,VWS V14.01,2013-01-18 01:44:00,
2013-01-17 19:49:00,28.9,10.8,30.59,WSW,248,0.0,0.0,46,0.00,,SKC,0.00,VWS V14.01,2013-01-18 01:49:00,
2013-01-17 19:54:00,28.2,10.6,30.59,WSW,248,0.0,0.0,47,0.00,,SKC,0.00,VWS V14.01,2013-01-18 01:54:00,
2013-01-17 19:59:00,27.9,10.7,30.59,WSW,248,0.0,0.0,48,0.00,,SKC,0.00,VWS V14.01,2013-01-18 01:59:00,
2013-01-17 20:04:00,27.7,10.6,30.59,WSW,248,0.0,0.0,48,0.00,,SKC,0.00,VWS V14.01,2013-01-18 02:04:00,
2013-01-17 20:09:00,27.5,10.4,30.56,WSW,248,0.0,0.0,48,0.00,,SKC,0.00,VWS V14.01,2013-01-18 02:09:00,
2013-01-17 20:14:00,27.5,10.9,30.56,WSW,248,0.0,0.0,49,0.00,,SKC,0.00,VWS V14.01,2013-01-18 02:14:00,
2013-01-17 20:19:00,27.1,11.0,30.56,WSW,248,0.0,0.0,50,0.00,,SKC,0.00,VWS V14.01,2013-01-18 02:19:00,
2013-01-17 20:24:00,27.1,11.0,30.59,WSW,248,0.0,0.0,50,0.00,,SKC,0.00,VWS V14.01,2013-01-18 02:24:00,
2013-01-17 20:29:00,27.1,11.4,30.59,WSW,248,0.0,0.0,51,0.00,,SKC,0.00,VWS V14.01,2013-01-18 02:29:00,
2013-01-17 20:34:00,27.0,11.3,30.59,WSW,248,0.0,0.0,51,0.00,,SKC,0.00,VWS V14.01,2013-01-18 02:34:00,
2013-01-17 20:39:00,26.8,11.1,30.59,WSW,248,0.0,0.0,51,0.00,,SKC,0.00,VWS V14.01,2013-01-18 02:39:00,
2013-01-17 20:44:00,26.8,11.5,30.59,WSW,248,0.0,0.0,52,0.00,,SKC,0.00,VWS V14.01,2013-01-18 02:44:00,
2013-01-17 20:49:00,26.8,11.5,30.59,NNW,338,0.0,0.0,52,0.00,,SKC,0.00,VWS V14.01,2013-01-18 02:49:00,
2013-01-17 20:54:00,26.6,11.8,30.59,NNW,338,0.0,0.0,53,0.00,,SKC,0.00,VWS V14.01,2013-01-18 02:54:00,
2013-01-17 20:59:00,26.1,11.3,30.59,NNW,338,0.0,0.0,53,0.00,,SKC,0.00,VWS V14.01,2013-01-18 02:59:00,
2013-01-17 21:04:00,26.1,11.3,30.59,NNW,338,0.0,0.0,53,0.00,,SKC,0.00,VWS V14.01,2013-01-18 03:04:00,
2013-01-17 21:09:00,25.9,11.5,30.59,NNW,338,0.0,0.0,54,0.00,,SKC,0.00,VWS V14.01,2013-01-18 03:09:00,
2013-01-17 21:14:00,25.7,11.4,30.59,NNW,338,0.0,0.0,54,0.00,,SKC,0.00,VWS V14.01,2013-01-18 03:14:00,
2013-01-17 21:19:00,26.1,11.7,30.59,NNW,338,0.0,0.0,54,0.00,,SKC,0.00,VWS V14.01,2013-01-18 03:19:00,
2013-01-17 21:24:00,25.9,11.9,30.62,NNW,338,0.0,0.0,55,0.00,,SKC,0.00,VWS V14.01,2013-01-18 03:24:00,
2013-01-17 21:29:00,25.9,11.9,30.62,NNW,338,0.0,0.0,55,0.00,,SKC,0.00,VWS V14.01,2013-01-18 03:29:00,
2013-01-17 21:34:00,25.3,11.4,30.62,NNW,338,0.0,0.0,55,0.00,,SKC,0.00,VWS V14.01,2013-01-18 03:34:00,
2013-01-17 21:39:00,25.0,11.1,30.62,NNW,338,0.0,0.0,55,0.00,,SKC,0.00,VWS V14.01,2013-01-18 03:39:00,
2013-01-17 21:44:00,24.8,11.3,30.62,NNW,338,0.0,0.0,56,0.00,,SKC,0.00,VWS V14.01,2013-01-18 03:44:00,
2013-01-17 21:49:00,24.6,11.2,30.62,NNW,338,0.0,0.0,56,0.00,,SKC,0.00,VWS V14.01,2013-01-18 03:49:00,
2013-01-17 21:54:00,24.4,11.0,30.62,NNW,338,0.0,0.0,56,0.00,,SKC,0.00,VWS V14.01,2013-01-18 03:54:00,
2013-01-17 21:59:00,24.4,11.0,30.62,NNW,338,0.0,0.0,56,0.00,,SKC,0.00,VWS V14.01,2013-01-18 03:59:00,
2013-01-17 22:04:00,24.4,11.4,30.62,NNW,338,0.0,0.0,57,0.00,,SKC,0.00,VWS V14.01,2013-01-18 04:04:00,
2013-01-17 22:09:00,24.4,11.4,30.62,South,180,0.0,0.0,57,0.00,,SKC,0.00,VWS V14.01,2013-01-18 04:09:00,
2013-01-17 22:14:00,24.4,11.4,30.62,South,180,0.0,0.0,57,0.00,,SKC,0.00,VWS V14.01,2013-01-18 04:14:00,
2013-01-17 22:19:00,24.3,11.6,30.62,South,180,0.0,0.0,58,0.00,,SKC,0.00,VWS V14.01,2013-01-18 04:19:00,
2013-01-17 22:24:00,24.1,11.5,30.62,South,180,0.0,0.0,58,0.00,,SKC,0.00,VWS V14.01,2013-01-18 04:24:00,
2013-01-17 22:29:00,23.9,11.3,30.62,South,180,0.0,0.0,58,0.00,,SKC,0.00,VWS V14.01,2013-01-18 04:29:00,
2013-01-17 22:34:00,23.7,11.5,30.62,South,180,0.0,0.0,59,0.00,,SKC,0.00,VWS V14.01,2013-01-18 04:34:00,
2013-01-17 22:39:00,23.9,12.1,30.62,South,180,0.0,0.0,60,0.00,,SKC,0.00,VWS V14.01,2013-01-18 04:39:00,
2013-01-17 22:44:00,23.9,11.7,30.62,South,180,0.0,0.0,59,0.00,,SKC,0.00,VWS V14.01,2013-01-18 04:44:00,
2013-01-17 22:49:00,23.9,12.1,30.62,South,180,0.0,0.0,60,0.00,,SKC,0.00,VWS V14.01,2013-01-18 04:49:00,
2013-01-17 22:54:00,23.5,12.1,30.59,South,180,0.0,0.0,61,0.00,,SKC,0.00,VWS V14.01,2013-01-18 04:54:00,
2013-01-17 22:59:00,23.5,12.1,30.59,South,180,0.0,0.0,61,0.00,,SKC,0.00,VWS V14.01,2013-01-18 04:59:00,
2013-01-17 23:00:00,23.5,12.1,30.59,South,180,0.0,0.0,61,0.00,,SKC,0.00,VWS V14.01,2013-01-18 05:00:00,
2013-01-17 23:02:00,23.4,12.3,30.59,South,180,0.0,0.0,62,0.00,,SKC,0.00,VWS V14.01,2013-01-18 05:02:00,
2013-01-17 23:07:00,23.5,12.4,30.59,South,180,0.0,0.0,62,0.00,,SKC,0.00,VWS V14.01,2013-01-18 05:07:00,
2013-01-17 23:12:00,23.5,12.4,30.62,South,180,0.0,0.0,62,0.00,,SKC,0.00,VWS V14.01,2013-01-18 05:12:00,
2013-01-17 23:17:00,23.5,12.8,30.62,South,180,0.0,0.0,63,0.00,,SKC,0.00,VWS V14.01,2013-01-18 05:17:00,
2013-01-17 23:22:00,23.4,12.6,30.62,South,180,0.0,0.0,63,0.00,,SKC,0.00,VWS V14.01,2013-01-18 05:22:00,
2013-01-17 23:27:00,23.2,12.8,30.62,South,180,0.0,0.0,64,0.00,,SKC,0.00,VWS V14.01,2013-01-18 05:27:00,
2013-01-17 23:32:00,23.0,13.0,30.62,South,180,0.0,0.0,65,0.00,,SKC,0.00,VWS V14.01,2013-01-18 05:32:00,
2013-01-17 23:37:00,23.0,13.0,30.62,South,180,0.0,0.0,65,0.00,,SKC,0.00,VWS V14.01,2013-01-18 05:37:00,
2013-01-17 23:42:00,23.0,13.0,30.59,South,180,0.0,0.0,65,0.00,,SKC,0.00,VWS V14.01,2013-01-18 05:42:00,
2013-01-17 23:47:00,22.8,12.8,30.59,South,180,0.0,0.0,65,0.00,,SKC,0.00,VWS V14.01,2013-01-18 05:47:00,
2013-01-17 23:52:00,22.8,13.2,30.59,South,180,0.0,0.0,66,0.00,,SKC,0.00,VWS V14.01,2013-01-18 05:52:00,
2013-01-17 23:57:00,22.6,13.0,30.62,South,180,0.0,0.0,66,0.00,,SKC,0.00,VWS V14.01,2013-01-18 05:57:00,